• Join FlightAware (Why Join?)
  • Login
  • US Flag 
01:57PM EDT


 

Airport Tracker/Info


-or-


 

Live Flight TrackerFlight Track Log ✈ ASQ6151 ✈ 20-May-2013 ✈ KORD - KPIA

Flight Track Log - Related Links

Times and Time Zones

All times are in EDT time to prevent confusion due to time zone crossing. See the ASQ6151 flight status page for this flight to view local times or setup timezone preferences in your user account.

Time Position Orientation Groundspeed Altitude Reporting Facility
EDT Latitude Longitude Course Direction KTS MPH feet Rate Location/Type
01:16AM 41.9500 -87.9500 270° West 191 220 2,800  Level Chicago TRACON
01:17AM 41.9333 -88.0333 255° West 218 251 5,000 2,580 Climbing Chicago TRACON
01:19AM 41.9150 -88.1256 255° West 221 254 8,700 2,760 Climbing Chicago Center
01:20AM 41.9169 -88.2150 254° West 269 310 11,400 2,160 Climbing Chicago Center
01:21AM 41.9506 -88.3075 296° West 283 326 13,100 840 Climbing Chicago Center
01:22AM 41.9670 -88.3220 270° West  Level FlightAware Approximate
01:22AM 41.9594 -88.4250 276° West 313 360 13,100  Level Chicago Center
01:23AM 41.9681 -88.5531 275° West 340 391 13,000 -60 Descending Chicago Center
01:24AM 41.9617 -88.6747 266° West 338 389 13,000  Level Chicago Center
01:25AM 41.9178 -88.7733 239° Southwest 312 359 13,000  Level Chicago Center
01:26AM 41.8736 -88.8756 240° Southwest 316 364 13,000  Level Chicago Center
01:27AM 41.8267 -88.9844 240° Southwest 334 384 13,000  Level Chicago Center
01:28AM 41.7728 -89.1092 240° Southwest 328 377 13,000  Level Chicago Center
01:29AM 41.7042 -89.1839 219° Southwest 331 381 13,000 -60 Level Chicago Center
01:30AM 41.6197 -89.2272 201° Southwest 331 381 12,900 -600 Descending Chicago Center
01:31AM 41.5503 -89.2606 200° South 278 320 11,900 -1,020 Descending Chicago Center
01:32AM 41.4728 -89.2986 200° South 284 327 10,900 -960 Descending Chicago Center
01:33AM 41.3989 -89.3361 201° Southwest 284 327 10,000 -480 Descending Chicago Center
01:34AM 41.3186 -89.3761 201° Southwest 304 350 10,000  Level Chicago Center
01:35AM 41.2347 -89.4139 199° South 318 366 10,000 -420 Level Chicago Center
01:36AM 41.1669 -89.4483 201° Southwest 270 311 9,200 -900 Descending Chicago Center
01:37AM 41.0989 -89.4825 201° Southwest 264 304 8,200 -1,080 Descending Chicago Center
01:38AM 41.0331 -89.5144 200° South 255 293 7,100 -1,080 Descending Chicago Center
01:39AM 40.9697 -89.5378 196° South 242 278 6,100 -960 Descending Chicago Center
01:40AM 40.9081 -89.5564 193° South 231 266 5,200 -900 Descending Chicago Center
01:41AM 40.8439 -89.5769 194° South 233 268 4,300 -900 Descending Chicago Center
01:42AM 40.7917 -89.5919 192° South 200 230 3,500 -900 Descending Chicago Center
01:43AM 40.7469 -89.6069 194° South 173 199 2,600 -900 Descending Chicago Center
01:44AM 40.7203 -89.6242 206° Southwest 123 142 1,800 -660 Descending Chicago Center
01:45AM 40.6964 -89.6489 226° Southwest 111 128 1,300 -540 Descending Chicago Center